| Date | Time | Temp. (oF) | Dew Point (oF) | Rel. Hum. (%) | Press. (in.) | Wind Dir. | Wind Speed (mph) | Hourly Rainfall (in.) |
|
|---|---|---|---|---|---|---|---|---|---|
| 1 | 08/21 | 00:00 | 59 | 55 | 87 | 30.20 | SSW | 0 | 0.00 |
| 2 | 08/20 | 23:00 | 61 | 55 | 82 | 30.20 | SSW | 0 | 0.00 |
| 3 | 08/20 | 22:00 | 64 | 55 | 74 | 30.18 | S | 0 | 0.00 |
| 4 | 08/20 | 21:00 | 68 | 53 | 60 | 30.17 | SE | 0 | 0.00 |
| 5 | 08/20 | 20:00 | 73 | 53 | 51 | 30.15 | SE | 0 | 0.00 |
| 6 | 08/20 | 19:00 | 75 | 50 | 43 | 30.13 | SW | 0 | 0.00 |
| 7 | 08/20 | 18:00 | 78 | 48 | 36 | 30.13 | ENE | 0 | 0.00 |
| 8 | 08/20 | 17:00 | 78 | 51 | 40 | 30.14 | S | 3 | 0.00 |
| 9 | 08/20 | 16:00 | 77 | 51 | 41 | 30.15 | WNW | 3 | 0.00 |
| 10 | 08/20 | 15:00 | 77 | 51 | 42 | 30.18 | SSW | 6 | 0.00 |
| 11 | 08/20 | 14:00 | 76 | 52 | 44 | 30.20 | WNW | 7 | 0.00 |
| 12 | 08/20 | 13:00 | 74 | 52 | 47 | 30.22 | N | 0 | 0.00 |
| 13 | 08/20 | 12:00 | 71 | 52 | 52 | 30.23 | NE | 1 | 0.00 |
| 14 | 08/20 | 11:00 | 69 | 52 | 56 | 30.24 | SW | 2 | 0.00 |
| 15 | 08/20 | 10:00 | 65 | 52 | 63 | 30.24 | ENE | 4 | 0.00 |
| 16 | 08/20 | 09:00 | 63 | 51 | 65 | 30.23 | ENE | 5 | 0.00 |
| 17 | 08/20 | 08:00 | 58 | 51 | 78 | 30.22 | N | 0 | 0.00 |
| 18 | 08/20 | 07:00 | 53 | 49 | 88 | 30.21 | NNW | 0 | 0.00 |
| 19 | 08/20 | 06:00 | 54 | 49 | 84 | 30.19 | S | 0 | 0.00 |
| 20 | 08/20 | 05:00 | 56 | 50 | 81 | 30.17 | NNE | 3 | 0.00 |
| 21 | 08/20 | 04:00 | 56 | 50 | 83 | 30.16 | SSW | 1 | 0.00 |
| 22 | 08/20 | 03:00 | 58 | 50 | 76 | 30.15 | N | 0 | 0.00 |
| 23 | 08/20 | 02:00 | 61 | 49 | 65 | 30.14 | NNE | 0 | 0.00 |
| 24 | 08/20 | 01:00 | 64 | 49 | 59 | 30.13 | NNE | 8 | 0.00 |